Terminal Aerodrome Forecast
Issued by NWS Los Angeles, CA

Home | Current Version | Previous Version | Text Only | Print | Product List | Glossary On
Versions: 1 2 3 4 5 6 7 8 9 10 11 12 13 14 15 16 17 18 19 20 21 22 23
000
FTUS46 KLOX 270538
TAFSMX
TAF
KSMX 270538Z 2706/2806 32006KT P6SM SCT080
     FM270800 31010KT P6SM BKN050 BKN100
     FM271000 32006KT P6SM VCSH BKN025 OVC050
     FM271200 33008KT P6SM SCT025 BKN050
     FM271700 32015G25KT P6SM SCT050
     FM272100 32025G33KT P6SM SKC
     FM280300 31016KT P6SM SKC=

USA.gov is the U.S. government's official web portal to all federal, state and local government web resources and services.